createdAt,value
2022-09-14T00:01:48.845Z,3.85
2022-09-14T00:04:20.277Z,3.85
2022-09-14T00:06:49.675Z,3.63
2022-09-14T00:09:23.127Z,4.25
2022-09-14T00:11:52.379Z,3.83
2022-09-14T00:14:21.636Z,3.88
2022-09-14T00:16:51.013Z,4.60
2022-09-14T00:19:22.563Z,3.72
2022-09-14T00:21:53.113Z,4.22
2022-09-14T00:24:22.448Z,3.75
2022-09-14T00:26:50.831Z,3.58
2022-09-14T00:29:19.788Z,3.88
2022-09-14T00:31:48.347Z,3.70
2022-09-14T00:34:17.864Z,3.90
2022-09-14T00:36:49.765Z,3.58
2022-09-14T00:39:19.651Z,3.78
2022-09-14T00:41:49.859Z,3.85
2022-09-14T00:45:10.362Z,3.88
2022-09-14T00:47:38.630Z,3.40
2022-09-14T00:50:08.073Z,4.40
2022-09-14T00:52:42.145Z,3.75
2022-09-14T00:55:13.072Z,3.97
2022-09-14T00:57:44.532Z,3.63
2022-09-14T01:00:16.655Z,3.83
2022-09-14T01:02:45.923Z,4.65
2022-09-14T01:05:14.829Z,4.28
2022-09-14T01:08:18.225Z,3.70
2022-09-14T01:11:01.622Z,3.90
2022-09-14T01:13:42.106Z,4.20
2022-09-14T01:16:20.249Z,4.07
2022-09-14T01:18:52.835Z,4.40
2022-09-14T01:21:25.111Z,4.60
2022-09-14T01:24:05.406Z,4.45
2022-09-14T01:26:56.397Z,4.30
2022-09-14T01:29:30.453Z,4.60
2022-09-14T01:32:04.483Z,4.85
2022-09-14T01:34:37.355Z,4.45
2022-09-14T01:37:13.254Z,4.43
2022-09-14T01:39:44.999Z,4.63
2022-09-14T01:42:18.025Z,4.72
2022-09-14T01:44:53.502Z,5.03
2022-09-14T01:47:27.504Z,4.88
2022-09-14T01:50:00.733Z,4.63
2022-09-14T01:52:35.327Z,4.45
2022-09-14T01:55:09.850Z,5.10
2022-09-14T01:57:45.851Z,4.93
2022-09-14T02:00:20.319Z,4.97
2022-09-14T02:02:51.213Z,4.70
2022-09-14T02:05:26.831Z,4.00
2022-09-14T02:07:56.538Z,4.93
2022-09-14T02:10:25.923Z,4.50
2022-09-14T02:12:55.435Z,4.60
2022-09-14T02:15:26.398Z,4.05
2022-09-14T02:17:55.277Z,4.38
2022-09-14T02:20:29.090Z,4.88
2022-09-14T02:22:57.885Z,4.90
2022-09-14T02:25:26.323Z,4.00
2022-09-14T02:27:55.457Z,4.03
2022-09-14T02:30:25.444Z,4.22
2022-09-14T02:33:08.318Z,4.32
2022-09-14T02:35:40.854Z,4.43
2022-09-14T02:38:16.067Z,4.57
2022-09-14T02:40:53.049Z,5.05
2022-09-14T02:43:31.209Z,4.90
2022-09-14T02:46:06.778Z,4.88
2022-09-14T02:48:43.094Z,6.38
2022-09-14T02:51:22.628Z,4.97
2022-09-14T02:53:59.577Z,5.32
2022-09-14T02:56:29.717Z,5.47
2022-09-14T02:58:58.020Z,5.40
2022-09-14T03:01:28.050Z,5.75
2022-09-14T03:03:56.298Z,5.75
2022-09-14T03:06:24.640Z,5.50
2022-09-14T03:08:52.901Z,6.35
2022-09-14T03:11:21.382Z,5.90
2022-09-14T03:13:49.943Z,6.10
2022-09-14T03:16:19.469Z,5.78
2022-09-14T03:18:49.151Z,5.57
2022-09-14T03:21:18.543Z,5.97
2022-09-14T03:23:48.312Z,6.40
2022-09-14T03:26:18.047Z,6.57
2022-09-14T03:28:46.395Z,5.75
2022-09-14T03:31:14.745Z,5.97
2022-09-14T03:33:43.166Z,6.03
2022-09-14T03:36:15.736Z,5.72
2022-09-14T03:38:45.480Z,6.00
2022-09-14T03:41:14.872Z,6.10
2022-09-14T03:43:44.275Z,5.97
2022-09-14T03:46:15.187Z,6.05
2022-09-14T03:48:44.290Z,5.72
2022-09-14T03:51:15.269Z,5.50
2022-09-14T03:53:44.923Z,6.30
2022-09-14T03:56:16.514Z,5.32
2022-09-14T03:58:46.030Z,5.78
2022-09-14T04:01:17.976Z,6.10
2022-09-14T04:03:46.831Z,6.60
2022-09-14T04:06:17.952Z,6.28
2022-09-14T04:08:47.726Z,6.00
2022-09-14T04:11:18.313Z,5.60
2022-09-14T04:13:47.339Z,6.70
2022-09-14T04:16:16.433Z,6.05
2022-09-14T04:18:45.174Z,6.07
2022-09-14T04:21:18.382Z,5.85
2022-09-14T04:24:10.634Z,6.30
2022-09-14T04:26:35.598Z,5.53
2022-09-14T04:29:03.900Z,6.03
2022-09-14T04:31:32.412Z,5.68
2022-09-14T04:34:00.791Z,6.20
2022-09-14T04:36:31.422Z,6.32
2022-09-14T04:39:01.735Z,6.13
2022-09-14T04:41:31.421Z,6.57
2022-09-14T04:44:00.681Z,7.10
2022-09-14T04:46:32.273Z,6.20
2022-09-14T04:49:00.754Z,5.80
2022-09-14T04:51:33.200Z,6.53
2022-09-14T04:54:04.608Z,5.78
2022-09-14T04:56:34.797Z,6.22
2022-09-14T04:59:05.710Z,6.93
2022-09-14T05:01:36.052Z,7.00
2022-09-14T05:04:05.726Z,6.82
2022-09-14T05:06:36.734Z,7.68
2022-09-14T05:09:07.784Z,7.53
2022-09-14T05:11:37.738Z,7.85
2022-09-14T05:14:06.572Z,7.60
2022-09-14T05:16:36.574Z,8.00
2022-09-14T05:19:07.360Z,8.18
2022-09-14T05:21:38.489Z,8.65
2022-09-14T05:24:08.968Z,8.88
2022-09-14T05:26:37.231Z,7.88
2022-09-14T05:29:05.745Z,9.35
2022-09-14T05:31:34.328Z,9.82
2022-09-14T05:34:02.656Z,9.00
2022-09-14T05:36:31.067Z,8.52
2022-09-14T05:39:01.060Z,8.20
2022-09-14T05:41:29.329Z,8.38
2022-09-14T05:43:58.050Z,8.38
2022-09-14T05:46:26.360Z,8.38
2022-09-14T05:48:54.673Z,7.65
2022-09-14T05:51:25.038Z,8.00
2022-09-14T05:53:55.082Z,8.38
2022-09-14T05:56:26.362Z,7.95
2022-09-14T05:58:55.622Z,7.70
2022-09-14T06:01:26.619Z,7.40
2022-09-14T06:03:55.728Z,7.13
2022-09-14T06:06:25.282Z,6.50
2022-09-14T06:08:55.745Z,6.90
2022-09-14T06:11:27.070Z,6.53
2022-09-14T06:13:55.893Z,6.97
2022-09-14T06:16:25.943Z,6.85
2022-09-14T06:18:56.564Z,7.10
2022-09-14T06:21:28.120Z,6.70
2022-09-14T06:23:56.940Z,6.90
2022-09-14T06:26:26.822Z,7.25
2022-09-14T06:28:55.698Z,7.57
2022-09-14T06:31:25.295Z,8.00
2022-09-14T06:33:54.485Z,7.45
2022-09-14T06:36:25.155Z,6.90
2022-09-14T06:38:54.219Z,7.03
2022-09-14T06:41:26.592Z,7.57
2022-09-14T06:43:57.458Z,7.68
2022-09-14T06:46:27.970Z,7.63
2022-09-14T06:48:58.575Z,6.55
2022-09-14T06:51:29.238Z,7.38
2022-09-14T06:53:59.467Z,7.50
2022-09-14T06:56:28.728Z,7.07
2022-09-14T06:58:59.175Z,7.40
2022-09-14T07:01:28.500Z,7.95
2022-09-14T07:03:57.221Z,7.80
2022-09-14T07:06:27.161Z,8.38
2022-09-14T07:08:55.897Z,9.05
2022-09-14T07:11:26.773Z,9.07
2022-09-14T07:13:59.843Z,8.88
2022-09-14T07:16:30.712Z,9.43
2022-09-14T07:19:01.874Z,9.65
2022-09-14T07:21:31.002Z,9.40
2022-09-14T07:24:00.107Z,9.80
2022-09-14T07:26:30.662Z,9.60
2022-09-14T07:29:01.578Z,11.48
2022-09-14T07:31:33.612Z,10.40
2022-09-14T07:34:03.471Z,10.07
2022-09-14T07:36:34.950Z,9.93
2022-09-14T07:39:05.011Z,10.02
2022-09-14T07:41:35.015Z,10.65
2022-09-14T07:44:05.724Z,10.95
2022-09-14T07:46:39.469Z,10.05
2022-09-14T07:49:09.230Z,10.45
2022-09-14T07:51:38.426Z,11.10
2022-09-14T07:54:07.858Z,12.13
2022-09-14T07:56:36.158Z,10.60
2022-09-14T07:59:33.427Z,10.40
2022-09-14T08:01:54.946Z,11.07
2022-09-14T08:04:23.397Z,10.55
2022-09-14T08:06:51.557Z,11.82
2022-09-14T08:09:19.821Z,11.57
2022-09-14T08:11:48.009Z,11.27
2022-09-14T08:14:16.204Z,11.77
2022-09-14T08:16:44.686Z,11.95
2022-09-14T08:19:16.686Z,12.00
2022-09-14T08:21:47.462Z,11.37
2022-09-14T08:24:18.265Z,13.02
2022-09-14T08:26:48.129Z,11.77
2022-09-14T08:29:18.186Z,11.32
2022-09-14T08:31:47.280Z,11.43
2022-09-14T08:34:18.175Z,9.57
2022-09-14T08:36:47.844Z,10.30
2022-09-14T08:39:17.764Z,9.70
2022-09-14T08:41:55.594Z,10.10
2022-09-14T08:44:28.247Z,9.55
2022-09-14T08:47:02.871Z,8.93
2022-09-14T08:49:48.587Z,8.43
2022-09-14T08:52:29.290Z,8.05
2022-09-14T08:55:00.011Z,7.55
2022-09-14T08:57:34.633Z,7.30
2022-09-14T09:00:10.299Z,7.45
2022-09-14T09:03:20.663Z,6.97
2022-09-14T09:05:54.650Z,7.05
2022-09-14T09:08:31.402Z,7.20
2022-09-14T09:11:01.750Z,7.37
2022-09-14T09:13:34.208Z,6.45
2022-09-14T09:16:05.997Z,6.32
2022-09-14T09:18:40.491Z,6.18
2022-09-14T09:21:16.476Z,6.95
2022-09-14T09:23:46.199Z,6.00
2022-09-14T09:26:18.428Z,5.80
2022-09-14T09:28:49.595Z,5.35
2022-09-14T09:31:20.070Z,5.25
2022-09-14T09:34:07.524Z,5.03
2022-09-14T09:36:41.429Z,6.25
2022-09-14T09:39:12.344Z,5.07
2022-09-14T09:41:45.967Z,5.55
2022-09-14T09:44:14.824Z,6.47
2022-09-14T09:46:48.854Z,6.18
2022-09-14T09:49:21.909Z,6.40
2022-09-14T09:51:53.389Z,6.05
2022-09-14T09:54:33.511Z,5.88
2022-09-14T09:57:04.133Z,7.10
2022-09-14T09:59:36.434Z,6.72
2022-09-14T10:02:28.085Z,6.47
2022-09-14T10:05:02.439Z,6.63
2022-09-14T10:07:35.834Z,5.90
2022-09-14T10:10:07.668Z,5.88
2022-09-14T10:12:37.572Z,6.97
2022-09-14T10:15:16.381Z,7.38
2022-09-14T10:18:06.060Z,6.97
2022-09-14T10:20:34.935Z,7.37
2022-09-14T10:23:24.233Z,6.57
2022-09-14T10:25:54.735Z,7.17
2022-09-14T10:28:28.440Z,8.77
2022-09-14T10:31:02.267Z,9.77
2022-09-14T10:33:31.302Z,9.30
2022-09-14T10:36:09.287Z,11.20
2022-09-14T10:38:45.960Z,11.93
2022-09-14T10:41:24.013Z,12.32
2022-09-14T10:44:24.397Z,10.23
2022-09-14T10:47:11.485Z,10.87
2022-09-14T10:49:52.936Z,9.45
2022-09-14T10:52:29.905Z,8.47
2022-09-14T10:55:31.858Z,7.63
2022-09-14T10:58:10.774Z,7.03
2022-09-14T11:00:46.447Z,6.33
2022-09-14T11:03:25.729Z,5.55
2022-09-14T11:06:04.928Z,4.07
2022-09-14T11:08:35.302Z,3.33
2022-09-14T11:11:27.383Z,3.47
2022-09-14T11:14:17.720Z,3.28
2022-09-14T11:17:14.538Z,3.15
2022-09-14T11:19:53.044Z,3.10
2022-09-14T11:22:32.017Z,2.90
2022-09-14T11:25:05.972Z,2.80
2022-09-14T11:27:41.000Z,2.50
2022-09-14T11:30:15.430Z,2.70
2022-09-14T11:32:48.377Z,3.60
2022-09-14T11:35:20.925Z,2.80
2022-09-14T11:37:54.442Z,3.10
2022-09-14T11:40:29.153Z,2.60
2022-09-14T11:43:04.087Z,3.10
2022-09-14T11:45:37.488Z,3.22
2022-09-14T11:48:41.488Z,3.53
2022-09-14T11:51:07.640Z,3.40
2022-09-14T11:53:37.426Z,3.03
2022-09-14T11:56:06.174Z,2.67
2022-09-14T11:58:36.276Z,2.10
2022-09-14T12:01:27.911Z,2.27
2022-09-14T12:04:11.672Z,1.90
2022-09-14T12:07:00.805Z,2.17
2022-09-14T12:09:40.604Z,1.60
2022-09-14T12:12:29.971Z,2.13
2022-09-14T12:15:03.719Z,2.53
2022-09-14T12:17:39.984Z,2.60
2022-09-14T12:20:30.006Z,3.33
2022-09-14T12:23:16.820Z,2.90
2022-09-14T12:26:13.833Z,3.30
2022-09-14T12:28:48.346Z,3.07
2022-09-14T12:31:36.245Z,3.20
2022-09-14T12:34:18.736Z,3.50
2022-09-14T12:37:28.729Z,3.40
2022-09-14T12:40:34.652Z,4.13
2022-09-14T12:43:48.488Z,3.20
2022-09-14T12:46:38.609Z,3.47
2022-09-14T12:49:37.120Z,3.30
2022-09-14T12:52:29.853Z,3.57
2022-09-14T12:55:12.288Z,4.00
2022-09-14T12:57:46.956Z,3.45
2022-09-14T13:00:18.091Z,3.43
2022-09-14T13:03:14.777Z,4.23
2022-09-14T13:05:46.249Z,4.20
2022-09-14T13:08:21.927Z,5.43
2022-09-14T13:10:54.156Z,5.37
2022-09-14T13:13:24.885Z,6.73
2022-09-14T13:15:55.879Z,7.37
2022-09-14T13:18:37.174Z,7.73
2022-09-14T13:21:19.419Z,9.13
2022-09-14T13:23:48.285Z,8.93
2022-09-14T13:26:20.567Z,8.57
2022-09-14T13:28:51.482Z,8.37
2022-09-14T13:31:25.509Z,7.67
2022-09-14T13:33:56.700Z,8.33
2022-09-14T13:36:28.563Z,9.33
2022-09-14T13:39:01.567Z,9.20
2022-09-14T13:41:32.085Z,8.37
2022-09-14T13:44:01.785Z,7.37
2022-09-14T13:46:30.223Z,6.13
2022-09-14T13:49:00.751Z,6.65
2022-09-14T13:51:31.572Z,7.60
2022-09-14T13:54:17.715Z,7.77
2022-09-14T13:56:47.722Z,8.90
2022-09-14T13:59:21.739Z,10.00
2022-09-14T14:01:59.107Z,9.85
2022-09-14T14:04:34.134Z,9.13
2022-09-14T14:07:19.041Z,7.90
2022-09-14T14:09:51.749Z,7.65
2022-09-14T14:12:26.334Z,7.60
2022-09-14T14:14:59.406Z,8.47
2022-09-14T14:17:36.939Z,8.97
2022-09-14T14:20:32.921Z,8.02
2022-09-14T14:23:21.775Z,8.80
2022-09-14T14:25:54.346Z,9.07
2022-09-14T14:28:26.901Z,7.93
2022-09-14T14:30:56.348Z,7.43
2022-09-14T14:33:25.654Z,7.60
2022-09-14T14:35:57.059Z,7.63
2022-09-14T14:38:25.843Z,7.85
2022-09-14T14:40:58.140Z,7.78
2022-09-14T14:43:28.199Z,8.27
2022-09-14T14:45:59.321Z,8.03
2022-09-14T14:48:28.185Z,8.03
2022-09-14T14:50:57.829Z,8.53
2022-09-14T14:53:26.976Z,7.60
2022-09-14T14:55:55.283Z,7.47
2022-09-14T14:58:24.261Z,8.00
2022-09-14T15:00:53.022Z,7.77
2022-09-14T15:03:21.770Z,6.90
2022-09-14T15:05:51.234Z,6.47
2022-09-14T15:08:21.252Z,6.93
2022-09-14T15:10:50.186Z,5.88
2022-09-14T15:13:18.444Z,5.75
2022-09-14T15:15:46.815Z,7.38
2022-09-14T15:18:15.123Z,8.55
2022-09-14T15:20:43.422Z,7.50
2022-09-14T15:23:14.210Z,7.17
2022-09-14T15:25:44.108Z,6.57
2022-09-14T15:28:12.510Z,6.73
2022-09-14T15:30:41.715Z,7.13
2022-09-14T15:33:10.199Z,6.53
2022-09-14T15:35:40.146Z,6.33
2022-09-14T15:38:08.477Z,7.05
2022-09-14T15:40:36.962Z,7.13
2022-09-14T15:43:07.011Z,6.77
2022-09-14T15:45:35.486Z,7.30
2022-09-14T15:48:04.030Z,6.97
2022-09-14T15:50:32.335Z,7.50
2022-09-14T15:53:02.861Z,7.60
2022-09-14T15:55:31.375Z,7.83
2022-09-14T15:57:59.907Z,9.10
2022-09-14T16:00:29.528Z,8.53
2022-09-14T16:02:57.914Z,8.73
2022-09-14T16:05:26.218Z,10.77
2022-09-14T16:07:54.932Z,12.73
2022-09-14T16:10:25.590Z,12.97
2022-09-14T16:12:54.855Z,11.82
2022-09-14T16:15:23.485Z,12.50
2022-09-14T16:17:54.191Z,11.93
2022-09-14T16:20:23.323Z,11.73
2022-09-14T16:22:52.314Z,11.63
2022-09-14T16:25:20.639Z,11.70
2022-09-14T16:27:49.041Z,10.30
2022-09-14T16:30:17.475Z,10.70
2022-09-14T16:32:45.773Z,10.37
2022-09-14T16:35:15.596Z,10.70
2022-09-14T16:37:43.868Z,10.93
2022-09-14T16:40:13.892Z,10.63
2022-09-14T16:42:42.957Z,10.47
2022-09-14T16:45:11.493Z,11.03
2022-09-14T16:47:39.889Z,10.90
2022-09-14T16:50:08.596Z,10.87
2022-09-14T16:52:38.258Z,11.53
2022-09-14T16:55:07.734Z,11.63
2022-09-14T16:57:36.064Z,11.60
2022-09-14T17:00:05.408Z,11.20
2022-09-14T17:02:33.782Z,12.07
2022-09-14T17:05:02.122Z,11.00
2022-09-14T17:07:30.373Z,12.13
2022-09-14T17:10:00.075Z,10.83
2022-09-14T17:12:28.339Z,10.87
2022-09-14T17:14:56.608Z,10.90
2022-09-14T17:17:25.224Z,10.63
2022-09-14T17:19:53.516Z,11.40
2022-09-14T17:22:22.158Z,11.93
2022-09-14T17:24:50.452Z,11.23
2022-09-14T17:27:20.068Z,10.53
2022-09-14T17:29:48.615Z,10.90
2022-09-14T17:32:16.916Z,10.23
2022-09-14T17:34:45.920Z,10.67
2022-09-14T17:37:14.249Z,9.23
2022-09-14T17:39:42.560Z,8.83
2022-09-14T17:42:11.127Z,8.63
2022-09-14T17:44:40.994Z,8.67
2022-09-14T17:47:09.303Z,9.27
2022-09-14T17:49:37.700Z,8.47
2022-09-14T17:52:06.446Z,8.13
2022-09-14T17:54:34.763Z,7.33
2022-09-14T17:57:03.137Z,6.93
2022-09-14T17:59:31.454Z,7.53
2022-09-14T18:02:01.508Z,6.77
2022-09-14T18:04:30.258Z,6.17
2022-09-14T18:06:58.634Z,5.53
2022-09-14T18:09:26.961Z,6.27
2022-09-14T18:11:57.452Z,6.67
2022-09-14T18:14:26.127Z,6.47
2022-09-14T18:16:54.471Z,6.70
2022-09-14T18:19:24.164Z,6.10
2022-09-14T18:21:53.034Z,7.10
2022-09-14T18:24:21.893Z,5.80
2022-09-14T18:26:50.369Z,5.57
2022-09-14T18:29:21.193Z,6.90
2022-09-14T18:31:49.813Z,6.57
2022-09-14T18:34:18.491Z,6.37
2022-09-14T18:36:49.578Z,6.53
2022-09-14T18:39:18.042Z,7.23
2022-09-14T18:41:46.302Z,6.60
2022-09-14T18:44:14.569Z,7.07
2022-09-14T18:46:44.474Z,7.23
2022-09-14T18:49:12.811Z,6.80
2022-09-14T18:51:41.036Z,6.90
2022-09-14T18:54:12.872Z,8.27
2022-09-14T18:56:41.553Z,8.15
2022-09-14T18:59:13.217Z,7.97
2022-09-14T19:01:42.846Z,7.73
2022-09-14T19:04:12.297Z,7.43
2022-09-14T19:06:42.313Z,8.57
2022-09-14T19:09:13.429Z,7.70
2022-09-14T19:11:42.179Z,8.97
2022-09-14T19:14:12.952Z,7.73
2022-09-14T19:16:42.728Z,8.50
2022-09-14T19:19:14.110Z,8.53
2022-09-14T19:21:42.413Z,8.27
2022-09-14T19:24:14.400Z,8.40
2022-09-14T19:26:49.149Z,7.73
2022-09-14T19:29:19.990Z,6.90
2022-09-14T19:31:51.561Z,7.97
2022-09-14T19:34:20.826Z,7.73
2022-09-14T19:36:49.730Z,6.20
2022-09-14T19:39:19.534Z,6.80
2022-09-14T19:41:48.430Z,7.20
2022-09-14T19:44:17.426Z,8.20
2022-09-14T19:46:46.170Z,6.33
2022-09-14T19:49:16.760Z,6.43
2022-09-14T19:51:46.920Z,6.13
2022-09-14T19:54:15.651Z,5.97
2022-09-14T19:56:46.195Z,6.50
2022-09-14T19:59:15.324Z,5.93
2022-09-14T20:01:44.074Z,6.57
2022-09-14T20:04:13.087Z,6.13
2022-09-14T20:06:43.816Z,6.73
2022-09-14T20:09:15.081Z,6.30
2022-09-14T20:11:46.238Z,5.67
2022-09-14T20:14:17.540Z,5.90
2022-09-14T20:16:47.648Z,5.83
2022-09-14T20:19:18.006Z,6.33
2022-09-14T20:21:47.475Z,5.67
2022-09-14T20:24:18.206Z,6.00
2022-09-14T20:26:49.445Z,5.63
2022-09-14T20:29:19.260Z,5.77
2022-09-14T20:31:48.559Z,5.77
2022-09-14T20:34:19.690Z,6.07
2022-09-14T20:36:48.519Z,5.63
2022-09-14T20:39:17.487Z,6.37
2022-09-14T20:41:47.546Z,5.67
2022-09-14T20:44:16.977Z,6.23
2022-09-14T20:46:47.147Z,6.27
2022-09-14T20:49:19.267Z,6.07
2022-09-14T20:51:47.786Z,6.67
2022-09-14T20:54:20.200Z,6.23
2022-09-14T20:56:50.044Z,5.77
2022-09-14T20:59:20.036Z,7.17
2022-09-14T21:01:50.371Z,6.60
2022-09-14T21:04:20.532Z,6.87
2022-09-14T21:06:51.926Z,6.53
2022-09-14T21:09:22.449Z,6.57
2022-09-14T21:11:52.967Z,6.90
2022-09-14T21:14:22.182Z,6.23
2022-09-14T21:16:55.559Z,7.30
2022-09-14T21:19:25.726Z,7.07
2022-09-14T21:21:54.370Z,6.87
2022-09-14T21:24:24.242Z,7.10
2022-09-14T21:26:54.016Z,6.97
2022-09-14T21:29:24.626Z,6.30
2022-09-14T21:31:53.260Z,7.40
2022-09-14T21:34:21.618Z,6.33
2022-09-14T21:36:51.943Z,6.27
2022-09-14T21:39:22.973Z,7.07
2022-09-14T21:41:58.447Z,6.27
2022-09-14T21:44:31.599Z,7.20
2022-09-14T21:47:00.244Z,7.23
2022-09-14T21:49:28.662Z,7.20
2022-09-14T21:51:57.016Z,7.80
2022-09-14T21:54:25.444Z,7.70
2022-09-14T21:56:55.354Z,7.37
2022-09-14T21:59:24.958Z,7.27
2022-09-14T22:01:54.363Z,6.83
2022-09-14T22:04:24.359Z,7.13
2022-09-14T22:06:53.778Z,7.80
2022-09-14T22:09:24.746Z,7.17
2022-09-14T22:11:54.789Z,7.60
2022-09-14T22:14:27.032Z,6.83
2022-09-14T22:16:56.290Z,7.40
2022-09-14T22:19:28.866Z,8.27
2022-09-14T22:21:57.699Z,8.10
2022-09-14T22:24:29.698Z,7.10
2022-09-14T22:27:01.698Z,8.63
2022-09-14T22:29:30.484Z,8.33
2022-09-14T22:32:00.232Z,7.83
2022-09-14T22:34:28.880Z,7.37
2022-09-14T22:36:57.203Z,8.23
2022-09-14T22:39:25.641Z,8.93
2022-09-14T22:41:54.890Z,8.57
2022-09-14T22:44:24.698Z,9.40
2022-09-14T22:46:53.250Z,8.37
2022-09-14T22:49:21.764Z,8.87
2022-09-14T22:51:53.042Z,9.27
2022-09-14T22:54:22.919Z,8.93
2022-09-14T22:56:51.227Z,9.90
2022-09-14T22:59:19.463Z,8.83
2022-09-14T23:01:49.252Z,8.87
2022-09-14T23:04:17.594Z,9.53
2022-09-14T23:06:48.369Z,9.37
2022-09-14T23:09:21.576Z,8.73
2022-09-14T23:11:50.161Z,8.57
2022-09-14T23:14:18.921Z,8.40
2022-09-14T23:16:48.881Z,9.23
2022-09-14T23:19:19.034Z,8.60
2022-09-14T23:21:47.750Z,8.50
2022-09-14T23:24:16.248Z,9.53
2022-09-14T23:26:44.861Z,8.47
2022-09-14T23:29:15.704Z,8.90
2022-09-14T23:31:44.202Z,9.33
2022-09-14T23:34:13.928Z,8.00
2022-09-14T23:36:42.414Z,8.67
2022-09-14T23:39:10.832Z,8.30
2022-09-14T23:41:40.069Z,8.90
2022-09-14T23:44:08.558Z,9.00
2022-09-14T23:46:36.920Z,8.10
2022-09-14T23:49:05.172Z,8.93
2022-09-14T23:51:34.826Z,8.13
2022-09-14T23:54:03.109Z,9.00
2022-09-14T23:56:31.638Z,8.20
2022-09-14T23:58:59.926Z,8.77
